createdAt,value
2023-04-05T00:02:03.573Z,99688.22
2023-04-05T00:04:57.604Z,99676.31
2023-04-05T00:07:48.111Z,99674.47
2023-04-05T00:10:34.848Z,99664.75
2023-04-05T00:13:21.894Z,99659.78
2023-04-05T00:16:09.012Z,99667.84
2023-04-05T00:18:57.175Z,99663.25
2023-04-05T00:21:43.761Z,99655.03
2023-04-05T00:24:30.971Z,99653.50
2023-04-05T00:27:17.507Z,99647.03
2023-04-05T00:30:04.672Z,99648.38
2023-04-05T00:32:51.663Z,99650.16
2023-04-05T00:35:38.258Z,99645.44
2023-04-05T00:38:24.924Z,99637.91
2023-04-05T00:41:12.433Z,99651.03
2023-04-05T00:43:59.831Z,99630.41
2023-04-05T00:46:47.992Z,99628.13
2023-04-05T00:49:36.441Z,99632.84
2023-04-05T00:52:23.330Z,99633.81
2023-04-05T00:55:11.441Z,99624.25
2023-04-05T00:57:57.930Z,99615.19
2023-04-05T01:00:51.448Z,99628.31
2023-04-05T01:03:38.985Z,99621.63
2023-04-05T01:06:48.468Z,99620.38
2023-04-05T01:09:41.221Z,99599.25
2023-04-05T01:12:33.161Z,99602.75
2023-04-05T01:15:19.490Z,99600.41
2023-04-05T01:18:06.124Z,99600.28
2023-04-05T01:21:21.006Z,99613.84
2023-04-05T01:24:25.155Z,99603.09
2023-04-05T01:27:19.103Z,99605.72
2023-04-05T01:30:23.060Z,99604.25
2023-04-05T01:33:31.407Z,99596.09
2023-04-05T01:36:45.321Z,99592.94
2023-04-05T01:39:32.391Z,99595.78
2023-04-05T01:42:25.284Z,99584.03
2023-04-05T01:45:11.684Z,99582.38
2023-04-05T01:47:58.169Z,99566.47
2023-04-05T01:50:44.753Z,99584.59
2023-04-05T01:53:32.293Z,99581.63
2023-04-05T01:56:18.532Z,99579.69
2023-04-05T01:59:05.338Z,99553.72
2023-04-05T02:01:52.326Z,99581.25
2023-04-05T02:04:38.814Z,99579.31
2023-04-05T02:07:27.093Z,99585.41
2023-04-05T02:10:14.695Z,99589.75
2023-04-05T02:13:01.437Z,99577.53
2023-04-05T02:15:50.508Z,99584.16
2023-04-05T02:18:38.708Z,99563.44
2023-04-05T02:21:26.031Z,99564.41
2023-04-05T02:24:12.636Z,99571.13
2023-04-05T02:26:59.005Z,99559.69
2023-04-05T02:29:45.340Z,99564.59
2023-04-05T02:32:32.798Z,99565.63
2023-04-05T02:35:21.317Z,99570.72
2023-04-05T02:38:09.729Z,99565.84
2023-04-05T02:40:55.818Z,99569.44
2023-04-05T02:43:42.261Z,99568.97
2023-04-05T02:46:29.043Z,99562.84
2023-04-05T02:49:16.743Z,99568.75
2023-04-05T02:52:03.602Z,99568.47
2023-04-05T02:54:50.380Z,99565.50
2023-04-05T02:57:46.350Z,99555.31
2023-04-05T03:00:51.463Z,99569.91
2023-04-05T03:03:44.134Z,99566.91
2023-04-05T03:06:31.625Z,99565.16
2023-04-05T03:09:18.953Z,99563.84
2023-04-05T03:12:10.214Z,99549.47
2023-04-05T03:15:00.223Z,99556.97
2023-04-05T03:17:54.707Z,99554.34
2023-04-05T03:20:42.147Z,99558.84
2023-04-05T03:23:36.583Z,99555.16
2023-04-05T03:26:24.608Z,99544.28
2023-04-05T03:29:13.204Z,99560.03
2023-04-05T03:31:59.656Z,99558.06
2023-04-05T03:34:46.318Z,99553.41
2023-04-05T03:37:34.537Z,99552.28
2023-04-05T03:40:25.376Z,99553.00
2023-04-05T03:43:13.450Z,99551.88
2023-04-05T03:46:00.072Z,99555.03
2023-04-05T03:48:48.542Z,99557.06
2023-04-05T03:51:34.946Z,99543.66
2023-04-05T03:54:21.944Z,99553.53
2023-04-05T03:57:09.248Z,99553.41
2023-04-05T03:59:55.954Z,99555.47
2023-04-05T04:02:50.409Z,99557.13
2023-04-05T04:05:40.842Z,99558.41
2023-04-05T04:08:28.347Z,99559.00
2023-04-05T04:11:17.569Z,99556.53
2023-04-05T04:14:04.362Z,99552.97
2023-04-05T04:17:36.917Z,99548.59
2023-04-05T04:20:48.112Z,99526.91
2023-04-05T04:23:57.856Z,99548.00
2023-04-05T04:27:06.821Z,99544.69
2023-04-05T04:30:25.117Z,99544.28
2023-04-05T04:33:17.441Z,99547.81
2023-04-05T04:36:14.546Z,99543.72
2023-04-05T04:39:16.117Z,99533.97
2023-04-05T04:42:25.900Z,99524.09
2023-04-05T04:45:17.323Z,99544.69
2023-04-05T04:48:07.551Z,99559.19
2023-04-05T04:51:09.281Z,99554.22
2023-04-05T04:53:55.839Z,99547.63
2023-04-05T04:56:42.290Z,99539.28
2023-04-05T04:59:29.670Z,99563.94
2023-04-05T05:02:16.250Z,99563.88
2023-04-05T05:05:02.768Z,99555.22
2023-04-05T05:07:49.096Z,99559.28
2023-04-05T05:10:35.558Z,99564.59
2023-04-05T05:13:23.831Z,99561.19
2023-04-05T05:16:10.597Z,99561.41
2023-04-05T05:18:56.942Z,99548.81
2023-04-05T05:21:49.365Z,99564.56
2023-04-05T05:24:36.027Z,99535.56
2023-04-05T05:27:22.991Z,99563.75
2023-04-05T05:30:09.853Z,99556.75
2023-04-05T05:32:57.912Z,99557.47
2023-04-05T05:35:48.860Z,99562.38
2023-04-05T05:38:36.189Z,99536.59
2023-04-05T05:41:22.798Z,99554.66
2023-04-05T05:44:09.123Z,99542.69
2023-04-05T05:46:55.702Z,99545.22
2023-04-05T05:49:42.301Z,99566.19
2023-04-05T05:52:29.025Z,99551.19
2023-04-05T05:55:15.889Z,99549.94
2023-04-05T05:58:02.066Z,99565.19
2023-04-05T06:00:50.624Z,99560.19
2023-04-05T06:03:38.239Z,99517.00
2023-04-05T06:06:24.580Z,99573.94
2023-04-05T06:09:11.295Z,99509.59
2023-04-05T06:11:58.477Z,99575.03
2023-04-05T06:14:45.038Z,99562.41
2023-04-05T06:17:31.616Z,99563.91
2023-04-05T06:20:18.338Z,99560.56
2023-04-05T06:23:04.684Z,99578.03
2023-04-05T06:25:51.192Z,99582.03
2023-04-05T06:28:37.465Z,99568.66
2023-04-05T06:31:31.594Z,99581.81
2023-04-05T06:34:18.201Z,99561.47
2023-04-05T06:37:04.587Z,99550.13
2023-04-05T06:39:50.957Z,99584.78
2023-04-05T06:42:37.573Z,99573.59
2023-04-05T06:45:26.348Z,99572.59
2023-04-05T06:48:13.122Z,99573.03
2023-04-05T06:51:01.178Z,99571.56
2023-04-05T06:53:47.499Z,99574.72
2023-04-05T06:56:33.844Z,99563.34
2023-04-05T06:59:20.785Z,99576.88
2023-04-05T07:02:07.172Z,99577.97
2023-04-05T07:04:53.951Z,99572.00
2023-04-05T07:07:44.552Z,99579.41
2023-04-05T07:10:31.051Z,99554.75
2023-04-05T07:13:18.712Z,99551.06
2023-04-05T07:16:05.666Z,99563.94
2023-04-05T07:18:52.536Z,99554.75
2023-04-05T07:21:38.996Z,99575.88
2023-04-05T07:24:26.068Z,99561.13
2023-04-05T07:27:13.124Z,99572.13
2023-04-05T07:29:59.663Z,99577.78
2023-04-05T07:32:46.219Z,99558.84
2023-04-05T07:35:32.797Z,99570.09
2023-04-05T07:38:19.072Z,99567.25
2023-04-05T07:41:05.932Z,99570.47
2023-04-05T07:43:52.653Z,99559.31
2023-04-05T07:49:31.363Z,99573.63
2023-04-05T07:52:17.692Z,99564.25
2023-04-05T07:55:04.756Z,99567.13
2023-04-05T07:57:51.536Z,99576.75
2023-04-05T08:00:38.431Z,99576.19
2023-04-05T08:03:25.489Z,99572.59
2023-04-05T08:06:13.369Z,99573.88
2023-04-05T08:08:59.736Z,99568.69
2023-04-05T08:11:46.140Z,99575.41
2023-04-05T08:14:32.545Z,99551.88
2023-04-05T08:17:20.177Z,99565.03
2023-04-05T08:20:07.831Z,99580.09
2023-04-05T08:22:54.425Z,99569.88
2023-04-05T08:25:42.648Z,99577.50
2023-04-05T08:28:29.165Z,99576.09
2023-04-05T08:31:15.701Z,99571.16
2023-04-05T08:34:02.011Z,99559.72
2023-04-05T08:36:48.920Z,99562.28
2023-04-05T08:39:36.053Z,99549.19
2023-04-05T08:42:46.975Z,99559.81
2023-04-05T08:45:34.543Z,99555.28
2023-04-05T08:48:21.187Z,99552.81
2023-04-05T08:51:09.324Z,99545.44
2023-04-05T08:53:56.332Z,99560.47
2023-04-05T08:56:46.578Z,99560.00
2023-04-05T08:59:37.352Z,99556.88
2023-04-05T09:02:25.130Z,99558.75
2023-04-05T09:05:13.739Z,99551.75
2023-04-05T09:08:01.525Z,99552.63
2023-04-05T09:10:51.605Z,99554.72
2023-04-05T09:13:38.066Z,99549.00
2023-04-05T09:16:26.152Z,99548.25
2023-04-05T09:19:12.843Z,99562.59
2023-04-05T09:22:10.249Z,99544.84
2023-04-05T09:25:01.208Z,99546.94
2023-04-05T09:27:57.759Z,99555.78
2023-04-05T09:30:47.422Z,99555.75
2023-04-05T09:33:34.406Z,99545.41
2023-04-05T09:36:21.432Z,99549.31
2023-04-05T09:39:08.972Z,99546.59
2023-04-05T09:42:17.969Z,99551.28
2023-04-05T09:45:07.382Z,99551.91
2023-04-05T09:48:03.999Z,99556.59
2023-04-05T09:50:50.726Z,99551.69
2023-04-05T09:53:37.633Z,99543.56
2023-04-05T09:56:24.317Z,99538.81
2023-04-05T09:59:12.148Z,99524.97
2023-04-05T10:01:58.521Z,99535.63
2023-04-05T10:04:46.847Z,99531.19
2023-04-05T10:07:34.543Z,99535.75
2023-04-05T10:10:22.690Z,99524.41
2023-04-05T10:13:09.186Z,99526.59
2023-04-05T10:16:00.606Z,99513.00
2023-04-05T10:18:51.917Z,99514.16
2023-04-05T10:21:42.822Z,99506.47
2023-04-05T10:24:35.043Z,99523.59
2023-04-05T10:27:32.942Z,99519.50
2023-04-05T10:30:19.757Z,99502.03
2023-04-05T10:33:12.471Z,99517.84
2023-04-05T10:36:20.554Z,99507.63
2023-04-05T10:39:16.755Z,99507.84
2023-04-05T10:42:09.928Z,99507.97
2023-04-05T10:45:06.720Z,99510.06
2023-04-05T10:48:08.805Z,99500.44
2023-04-05T10:50:57.593Z,99499.44
2023-04-05T10:53:46.376Z,99489.13
2023-04-05T10:56:33.631Z,99490.81
2023-04-05T10:59:22.345Z,99493.50
2023-04-05T11:02:09.607Z,99493.94
2023-04-05T11:05:00.545Z,99493.38
2023-04-05T11:07:49.606Z,99487.94
2023-04-05T11:10:38.888Z,99478.91
2023-04-05T11:13:52.218Z,99488.03
2023-04-05T11:16:40.059Z,99463.84
2023-04-05T11:19:45.178Z,99484.06
2023-04-05T11:22:31.731Z,99455.88
2023-04-05T11:25:25.194Z,99485.16
2023-04-05T11:28:22.914Z,99480.88
2023-04-05T11:31:20.523Z,99461.34
2023-04-05T11:34:12.799Z,99460.19
2023-04-05T11:36:59.186Z,99463.84
2023-04-05T11:39:45.475Z,99460.75
2023-04-05T11:42:32.116Z,99448.22
2023-04-05T11:45:19.289Z,99451.91
2023-04-05T11:48:13.163Z,99453.81
2023-04-05T11:51:00.407Z,99446.13
2023-04-05T11:53:47.380Z,99452.09
2023-04-05T11:56:33.670Z,99454.25
2023-04-05T11:59:21.410Z,99446.44
2023-04-05T12:02:09.081Z,99449.09
2023-04-05T12:04:57.329Z,99437.09
2023-04-05T12:07:43.738Z,99443.97
2023-04-05T12:10:30.250Z,99423.53
2023-04-05T12:13:29.175Z,99433.34
2023-04-05T12:16:16.615Z,99422.22
2023-04-05T12:19:03.136Z,99424.84
2023-04-05T12:21:49.490Z,99334.09
2023-04-05T12:24:35.966Z,99400.13
2023-04-05T12:27:22.262Z,99422.66
2023-04-05T12:30:27.786Z,99412.13
2023-04-05T12:33:14.233Z,99400.94
2023-04-05T12:36:05.528Z,99406.56
2023-04-05T12:38:54.749Z,99404.34
2023-04-05T12:41:41.693Z,99411.56
2023-04-05T12:44:30.294Z,99412.63
2023-04-05T12:47:17.598Z,99394.69
2023-04-05T12:50:14.964Z,99393.97
2023-04-05T12:53:06.132Z,99399.19
2023-04-05T12:55:57.589Z,99397.44
2023-04-05T12:58:48.573Z,99397.31
2023-04-05T13:01:35.022Z,99394.59
2023-04-05T13:04:23.120Z,99380.91
2023-04-05T13:07:09.751Z,99391.44
2023-04-05T13:09:56.298Z,99372.28
2023-04-05T13:12:43.329Z,99379.38
2023-04-05T13:15:29.986Z,99382.00
2023-04-05T13:18:16.698Z,99357.78
2023-04-05T13:21:07.726Z,99368.75
2023-04-05T13:23:53.850Z,99368.25
2023-04-05T13:26:40.705Z,99355.41
2023-04-05T13:29:27.046Z,99318.22
2023-04-05T13:32:13.798Z,99362.25
2023-04-05T13:35:00.389Z,99357.06
2023-04-05T13:37:47.198Z,99354.56
2023-04-05T13:40:33.700Z,99351.81
2023-04-05T13:43:20.465Z,99352.03
2023-04-05T13:46:07.116Z,99348.53
2023-04-05T13:48:53.689Z,99339.97
2023-04-05T13:51:41.378Z,99336.50
2023-04-05T13:54:27.973Z,99320.13
2023-04-05T13:57:14.573Z,99337.41
2023-04-05T14:00:00.882Z,99334.03
2023-04-05T14:02:49.232Z,99335.72
2023-04-05T14:05:35.989Z,99323.72
2023-04-05T14:08:22.310Z,99320.28
2023-04-05T14:11:08.727Z,99317.69
2023-04-05T14:13:55.674Z,99322.84
2023-04-05T14:16:42.396Z,99315.97
2023-04-05T14:19:29.031Z,99313.38
2023-04-05T14:22:15.671Z,99304.75
2023-04-05T14:25:02.372Z,99308.19
2023-04-05T14:27:48.986Z,99316.84
2023-04-05T14:30:35.477Z,99310.75
2023-04-05T14:33:23.840Z,99306.47
2023-04-05T14:36:13.141Z,99277.09
2023-04-05T14:38:59.538Z,99307.31
2023-04-05T14:41:52.333Z,99309.91
2023-04-05T14:44:38.900Z,99299.56
2023-04-05T14:47:25.398Z,99298.66
2023-04-05T14:50:12.076Z,99296.94
2023-04-05T14:52:59.916Z,99296.09
2023-04-05T14:55:46.531Z,99304.72
2023-04-05T14:58:34.147Z,99302.16
2023-04-05T15:01:20.705Z,99291.72
2023-04-05T15:04:09.282Z,99283.91
2023-04-05T15:06:56.116Z,99290.00
2023-04-05T15:09:43.062Z,99290.75
2023-04-05T15:12:29.704Z,99295.06
2023-04-05T15:15:16.168Z,99281.19
2023-04-05T15:18:03.845Z,99279.34
2023-04-05T15:20:50.895Z,99280.31
2023-04-05T15:23:37.341Z,99280.38
2023-04-05T15:26:23.870Z,99273.53
2023-04-05T15:29:10.300Z,99259.72
2023-04-05T15:31:58.044Z,99269.22
2023-04-05T15:34:44.796Z,99264.88
2023-04-05T15:37:31.705Z,99267.47
2023-04-05T15:40:18.322Z,99244.97
2023-04-05T15:43:04.924Z,99257.91
2023-04-05T15:45:51.611Z,99257.91
2023-04-05T15:48:38.255Z,99258.75
2023-04-05T15:51:25.090Z,99221.44
2023-04-05T15:54:16.605Z,99209.25
2023-04-05T15:57:03.422Z,99255.94
2023-04-05T15:59:49.964Z,99255.22
2023-04-05T16:02:37.771Z,99244.09
2023-04-05T16:05:25.479Z,99263.19
2023-04-05T16:08:15.855Z,99263.19
2023-04-05T16:11:02.454Z,99221.78
2023-04-05T16:13:54.547Z,99264.84
2023-04-05T16:16:52.470Z,99260.53
2023-04-05T16:19:41.190Z,99266.53
2023-04-05T16:22:27.593Z,99249.22
2023-04-05T16:25:14.012Z,99264.81
2023-04-05T16:28:01.422Z,99237.16
2023-04-05T16:30:48.386Z,99255.13
2023-04-05T16:33:35.387Z,99253.28
2023-04-05T16:36:22.430Z,99261.91
2023-04-05T16:39:08.997Z,99275.53
2023-04-05T16:41:55.494Z,99266.94
2023-04-05T16:44:42.251Z,99270.19
2023-04-05T16:47:28.924Z,99252.94
2023-04-05T16:50:15.592Z,99276.19
2023-04-05T16:53:02.489Z,99277.72
2023-04-05T16:55:49.033Z,99272.63
2023-04-05T16:58:35.811Z,99274.28
2023-04-05T17:01:22.568Z,99281.91
2023-04-05T17:04:09.153Z,99278.53
2023-04-05T17:06:55.816Z,99276.66
2023-04-05T17:09:42.474Z,99280.03
2023-04-05T17:12:29.037Z,99278.34
2023-04-05T17:15:16.299Z,99290.28
2023-04-05T17:18:06.603Z,99278.19
2023-04-05T17:20:53.343Z,99268.63
2023-04-05T17:23:39.986Z,99278.91
2023-04-05T17:26:27.790Z,99278.84
2023-04-05T17:29:17.578Z,99286.38
2023-04-05T17:32:04.158Z,99277.56
2023-04-05T17:34:51.168Z,99291.34
2023-04-05T17:37:38.115Z,99292.06
2023-04-05T17:40:24.722Z,99271.16
2023-04-05T17:43:13.066Z,99285.78
2023-04-05T17:45:59.950Z,99289.72
2023-04-05T17:48:47.805Z,99281.13
2023-04-05T17:51:34.391Z,99278.50
2023-04-05T17:54:21.277Z,99284.22
2023-04-05T18:05:10.047Z,99279.19
2023-04-05T18:07:56.898Z,99291.78
2023-04-05T18:10:43.180Z,99286.50
2023-04-05T18:13:30.678Z,99288.94
2023-04-05T18:16:17.044Z,99261.84
2023-04-05T18:19:03.595Z,99278.28
2023-04-05T18:21:50.898Z,99295.09
2023-04-05T18:24:37.391Z,99299.28
2023-04-05T18:27:23.842Z,99298.78
2023-04-05T18:30:10.867Z,99301.63
2023-04-05T18:32:57.253Z,99301.91
2023-04-05T18:35:50.464Z,99310.88
2023-04-05T18:38:37.162Z,99305.44
2023-04-05T18:41:24.023Z,99295.84
2023-04-05T18:44:10.490Z,99312.00
2023-04-05T18:46:58.230Z,99289.66
2023-04-05T18:49:44.692Z,99316.97
2023-04-05T18:52:34.201Z,99316.44
2023-04-05T18:55:20.749Z,99323.03
2023-04-05T18:58:07.206Z,99320.78
2023-04-05T19:00:53.517Z,99346.28
2023-04-05T19:03:41.213Z,99332.38
2023-04-05T19:06:28.077Z,99331.06
2023-04-05T19:09:16.677Z,99342.03
2023-04-05T19:12:03.506Z,99330.53
2023-04-05T19:14:50.212Z,99339.69
2023-04-05T19:17:36.825Z,99332.50
2023-04-05T19:20:23.426Z,99342.47
2023-04-05T19:23:10.094Z,99342.97
2023-04-05T19:25:58.068Z,99341.97
2023-04-05T19:28:44.366Z,99340.66
2023-04-05T19:31:30.930Z,99351.44
2023-04-05T19:34:17.489Z,99343.38
2023-04-05T19:37:04.574Z,99352.09
2023-04-05T19:39:51.014Z,99334.34
2023-04-05T19:42:37.710Z,99344.19
2023-04-05T19:45:26.152Z,99342.09
2023-04-05T19:48:41.582Z,99351.22
2023-04-05T19:51:31.658Z,99346.53
2023-04-05T19:54:21.018Z,99348.75
2023-04-05T19:57:07.679Z,99348.47
2023-04-05T19:59:54.957Z,99349.81
2023-04-05T20:02:41.773Z,99346.19
2023-04-05T20:06:06.598Z,99350.19
2023-04-05T20:08:59.415Z,99353.22
2023-04-05T20:11:50.928Z,99348.66
2023-04-05T20:14:42.522Z,99347.41
2023-04-05T20:17:29.499Z,99354.28
2023-04-05T20:20:17.602Z,99361.63
2023-04-05T20:23:07.742Z,99340.84
2023-04-05T20:25:59.048Z,99350.00
2023-04-05T20:28:54.101Z,99360.75
2023-04-05T20:31:41.218Z,99353.66
2023-04-05T20:34:36.335Z,99351.66
2023-04-05T20:37:24.162Z,99356.25
2023-04-05T20:40:11.826Z,99353.38
2023-04-05T20:42:58.474Z,99360.38
2023-04-05T20:45:45.205Z,99365.06
2023-04-05T20:48:33.102Z,99364.03
2023-04-05T20:51:22.832Z,99359.88
2023-04-05T20:54:09.172Z,99360.22
2023-04-05T20:56:55.749Z,99360.56
2023-04-05T20:59:42.740Z,99355.47
2023-04-05T21:02:29.523Z,99347.69
2023-04-05T21:05:16.345Z,99358.69
2023-04-05T21:08:03.044Z,99358.25
2023-04-05T21:10:49.753Z,99358.56
2023-04-05T21:13:36.951Z,99366.88
2023-04-05T21:16:23.399Z,99368.91
2023-04-05T21:19:10.435Z,99368.91
2023-04-05T21:21:56.798Z,99363.69
2023-04-05T21:24:43.250Z,99345.53
2023-04-05T21:27:29.760Z,99368.91
2023-04-05T21:30:17.003Z,99369.38
2023-04-05T21:33:03.887Z,99371.72
2023-04-05T21:35:50.949Z,99363.28
2023-04-05T21:38:37.825Z,99349.19
2023-04-05T21:41:27.932Z,99362.72
2023-04-05T21:44:14.836Z,99357.25
2023-04-05T21:47:02.258Z,99354.59
2023-04-05T21:49:49.877Z,99355.97
2023-04-05T21:52:36.733Z,99356.63
2023-04-05T21:55:23.691Z,99361.59
2023-04-05T21:58:10.352Z,99274.19
2023-04-05T22:00:57.053Z,99370.19
2023-04-05T22:03:43.712Z,99369.22
2023-04-05T22:06:30.431Z,99370.88
2023-04-05T22:09:17.172Z,99372.03
2023-04-05T22:12:04.319Z,99369.75
2023-04-05T22:14:50.524Z,99359.16
2023-04-05T22:17:37.327Z,99367.00
2023-04-05T22:20:26.437Z,99362.72
2023-04-05T22:23:13.080Z,99370.03
2023-04-05T22:25:59.714Z,99368.28
2023-04-05T22:28:46.445Z,99371.09
2023-04-05T22:31:33.361Z,99363.22
2023-04-05T22:34:22.207Z,99362.25
2023-04-05T22:37:14.489Z,99364.69
2023-04-05T22:40:02.046Z,99367.66
2023-04-05T22:42:48.392Z,99359.94
2023-04-05T22:45:34.945Z,99362.75
2023-04-05T22:48:21.669Z,99357.25
2023-04-05T22:51:08.408Z,99350.94
2023-04-05T22:53:54.625Z,99353.63
2023-04-05T22:56:40.994Z,99346.66
2023-04-05T22:59:27.812Z,99357.84
2023-04-05T23:02:14.423Z,99353.50
2023-04-05T23:05:01.256Z,99355.69
2023-04-05T23:07:47.978Z,99355.22
2023-04-05T23:10:34.603Z,99352.44
2023-04-05T23:13:21.404Z,99348.59
2023-04-05T23:16:08.072Z,99350.31
2023-04-05T23:18:57.941Z,99356.50
2023-04-05T23:21:44.280Z,99354.31
2023-04-05T23:24:30.844Z,99348.59
2023-04-05T23:27:17.174Z,99355.25
2023-04-05T23:30:04.250Z,99348.09
2023-04-05T23:32:50.815Z,99344.91
2023-04-05T23:35:37.454Z,99354.16
2023-04-05T23:38:23.799Z,99321.47
2023-04-05T23:41:10.513Z,99352.47
2023-04-05T23:43:57.453Z,99355.25
2023-04-05T23:46:44.028Z,99353.91
2023-04-05T23:49:30.644Z,99350.19
2023-04-05T23:52:17.142Z,99351.91
2023-04-05T23:55:05.059Z,99355.09
2023-04-05T23:57:52.232Z,99357.22
